EDT,Max TemperatureF,Mean TemperatureF,Min TemperatureF,Max Dew PointF,MeanDew PointF,Min DewpointF,Max Humidity, Mean Humidity, Min Humidity, Max Sea Level PressureIn, Mean Sea Level PressureIn, Min Sea Level PressureIn, Max VisibilityMiles, Mean VisibilityMiles, Min VisibilityMiles, Max Wind SpeedMPH, Mean Wind SpeedMPH, Max Gust SpeedMPH,PrecipitationIn, CloudCover, Events, WindDirDegrees
2012-4-1,51,44,39,44,38,33,97,80,54,29.90,29.77,29.62,10,7,2,8,2,,0.30,7,Rain,233
2012-4-2,55,46,37,42,28,16,90,54,27,29.86,29.73,29.60,10,10,6,25,13,36,0.05,3,Rain,332
2012-4-3,63,47,32,25,19,13,70,35,16,29.93,29.84,29.75,10,10,10,16,7,24,0.00,2,,300
2012-4-4,64,53,42,31,25,19,65,33,22,29.75,29.64,29.52,10,10,10,28,9,39,0.00,2,,303
2012-4-5,57,44,34,27,25,21,70,45,30,29.92,29.81,29.74,10,10,10,16,9,22,0.00,1,,327
2012-4-6,55,42,30,24,21,17,73,42,23,30.03,29.96,29.89,10,10,10,17,8,26,0.00,0,,331
2012-4-7,60,46,33,24,20,16,66,36,19,30.07,30.01,29.93,10,10,10,21,9,28,0.00,2,,315
2012-4-8,64,53,42,31,22,16,41,30,18,29.99,29.79,29.65,10,10,10,20,9,28,0.00,1,,295
2012-4-9,62,54,46,31,22,18,44,30,19,29.70,29.64,29.59,10,10,10,26,18,44,0.00,1,,288
2012-4-10,57,52,44,32,28,20,57,41,29,29.78,29.69,29.65,10,10,10,21,9,31,0.00,3,,270
2012-4-11,53,46,39,35,31,26,76,56,39,29.89,29.82,29.76,10,10,10,14,8,,0.00,6,,325
2012-4-12,60,50,42,37,32,27,76,52,29,30.11,29.98,29.88,10,10,10,22,13,29,0.00,4,,339
2012-4-13,63,51,39,37,30,23,76,47,24,30.20,30.14,30.09,10,10,10,17,6,21,0.00,1,,303
2012-4-14,70,55,41,39,32,23,76,41,18,30.21,30.10,30.00,10,10,10,13,6,20,0.00,1,,270
2012-4-15,73,65,57,56,51,38,75,59,40,30.02,29.98,29.94,10,10,10,12,5,22,0.00,4,Rain,252
2012-4-16,82,71,60,59,55,53,83,61,42,30.01,29.96,29.91,10,10,6,14,4,20,0.00,0,,175
2012-4-17,77,69,57,57,41,29,83,40,18,30.15,30.04,29.89,10,10,9,16,8,31,0.00,0,,309
2012-4-18,61,52,46,40,32,28,66,44,33,30.25,30.18,30.12,10,10,10,21,11,28,0.00,3,,332
2012-4-19,66,57,48,47,44,41,90,69,39,30.11,30.07,30.00,10,10,6,10,4,,0.04,3,Rain,178
2012-4-20,70,57,45,52,47,43,97,70,46,30.03,29.97,29.86,10,9,5,12,3,,0.01,3,,155
2012-4-21,72,63,55,57,55,52,100,84,59,29.86,29.77,29.68,10,6,0,17,5,25,0.00,5,Fog-Rain,147
2012-4-22,51,49,46,48,44,40,93,85,68,29.78,29.66,29.34,10,6,1,20,13,31,1.81,6,Rain,1
2012-4-23,54,48,44,52,44,34,100,84,65,29.39,29.27,29.15,10,6,0,16,9,22,0.55,8,Fog-Rain,141
2012-4-24,57,49,41,43,32,23,81,56,27,29.69,29.51,29.38,10,10,9,15,7,26,0.00,6,Rain,228
2012-4-25,59,49,39,36,31,26,79,51,30,29.91,29.80,29.71,10,10,10,12,4,18,0.00,3,,250
2012-4-26,59,47,37,53,44,32,97,81,59,29.93,29.75,29.58,10,6,0,13,5,18,0.04,4,Fog-Rain,119
2012-4-27,55,47,39,54,33,24,100,59,42,30.13,29.83,29.57,10,9,1,28,16,40,0.00,4,Rain,302
2012-4-28,59,46,36,29,24,21,65,43,25,30.22,30.14,30.09,10,10,10,13,8,23,0.00,2,,274
2012-4-29,62,48,36,33,21,13,62,34,20,30.24,30.13,30.06,10,10,10,21,9,29,0.00,0,,314
2012-4-30,57,47,37,40,26,15,68,43,24,30.35,30.27,30.21,10,10,10,13,5,18,0.00,2,,148